Columbus, Ohio
Traffic Map
Current Weather Conditions
Columbus, Ohio
Few Clouds
Few Clouds
14°
Feels Like: 2°
Wind Chill: Ceiling: Unl
Heat Index: 14° Visibility: 10mi
Dew Point: -4° Wind: 9mph
Humidity: 45% Direction: 340° (NNW)
Pressure: 30.61in Gusts: 0mph
Raw Report DataKCMH 272351Z 34008KT 10SM FEW042 M10/M20 A3061 RMK AO2 SLP384 4/004 T11001200 11078 21100 53011
Traffic Incident Summary
Active as of:
Severity:
Category:
InformationThere was an issue retrieving the traffic information for this location. Please try a different location or try again shortly.
Advertisements
Track Severe Weather on mobile